sensor_id;sensor_type;location;lat;lon;timestamp;pressure;altitude;pressure_sealevel;temperature;humidity
49827;BME280;35715;51.570;6.036;2024-03-06T00:00:26;101633.81;;;7.21;100.00
49827;BME280;35715;51.570;6.036;2024-03-06T00:02:51;101643.19;;;7.21;100.00
49827;BME280;35715;51.570;6.036;2024-03-06T00:05:17;101640.47;;;7.19;100.00
49827;BME280;35715;51.570;6.036;2024-03-06T00:07:42;101641.97;;;7.17;100.00
49827;BME280;35715;51.570;6.036;2024-03-06T00:10:08;101641.97;;;7.17;100.00
49827;BME280;35715;51.570;6.036;2024-03-06T00:12:33;101644.53;;;7.17;100.00
49827;BME280;35715;51.570;6.036;2024-03-06T00:14:59;101635.78;;;7.15;100.00
49827;BME280;35715;51.570;6.036;2024-03-06T00:17:24;101648.50;;;7.14;100.00
49827;BME280;35715;51.570;6.036;2024-03-06T00:19:49;101647.44;;;7.12;100.00
49827;BME280;35715;51.570;6.036;2024-03-06T00:22:15;101648.06;;;7.09;100.00
49827;BME280;35715;51.570;6.036;2024-03-06T00:24:40;101651.22;;;7.06;100.00
49827;BME280;35715;51.570;6.036;2024-03-06T00:27:05;101651.06;;;7.05;100.00
49827;BME280;35715;51.570;6.036;2024-03-06T00:29:31;101658.47;;;7.02;100.00
49827;BME280;35715;51.570;6.036;2024-03-06T00:31:58;101660.63;;;6.97;100.00
49827;BME280;35715;51.570;6.036;2024-03-06T00:34:23;101666.63;;;6.98;100.00
49827;BME280;35715;51.570;6.036;2024-03-06T00:36:49;101656.22;;;6.96;100.00
49827;BME280;35715;51.570;6.036;2024-03-06T00:39:14;101665.75;;;6.97;100.00
49827;BME280;35715;51.570;6.036;2024-03-06T00:41:40;101662.16;;;6.95;100.00
49827;BME280;35715;51.570;6.036;2024-03-06T00:44:06;101665.47;;;6.94;100.00
49827;BME280;35715;51.570;6.036;2024-03-06T00:46:31;101665.59;;;6.96;100.00
49827;BME280;35715;51.570;6.036;2024-03-06T00:48:57;101663.19;;;6.97;100.00
49827;BME280;35715;51.570;6.036;2024-03-06T00:51:23;101671.03;;;6.99;100.00
49827;BME280;35715;51.570;6.036;2024-03-06T00:53:48;101672.84;;;7.00;100.00
49827;BME280;35715;51.570;6.036;2024-03-06T00:56:14;101662.72;;;7.01;100.00
49827;BME280;35715;51.570;6.036;2024-03-06T00:58:39;101668.00;;;7.03;100.00
49827;BME280;35715;51.570;6.036;2024-03-06T01:01:04;101673.13;;;7.03;100.00
49827;BME280;35715;51.570;6.036;2024-03-06T01:03:29;101677.34;;;7.02;100.00
49827;BME280;35715;51.570;6.036;2024-03-06T01:05:55;101680.06;;;7.04;100.00
49827;BME280;35715;51.570;6.036;2024-03-06T01:08:23;101685.47;;;7.07;100.00
49827;BME280;35715;51.570;6.036;2024-03-06T01:10:55;101688.97;;;7.07;100.00
49827;BME280;35715;51.570;6.036;2024-03-06T01:13:20;101678.56;;;7.06;100.00
49827;BME280;35715;51.570;6.036;2024-03-06T01:15:45;101687.47;;;7.01;100.00
49827;BME280;35715;51.570;6.036;2024-03-06T01:18:11;101687.75;;;7.04;100.00
49827;BME280;35715;51.570;6.036;2024-03-06T01:20:36;101688.69;;;7.04;100.00
49827;BME280;35715;51.570;6.036;2024-03-06T01:23:02;101690.31;;;7.04;100.00
49827;BME280;35715;51.570;6.036;2024-03-06T01:25:27;101688.69;;;7.04;100.00
49827;BME280;35715;51.570;6.036;2024-03-06T01:27:53;101683.25;;;7.01;100.00
49827;BME280;35715;51.570;6.036;2024-03-06T01:30:18;101695.31;;;7.02;100.00
49827;BME280;35715;51.570;6.036;2024-03-06T01:32:44;101689.28;;;7.02;100.00
49827;BME280;35715;51.570;6.036;2024-03-06T01:35:09;101693.22;;;6.98;100.00
49827;BME280;35715;51.570;6.036;2024-03-06T01:37:34;101703.50;;;6.98;100.00
49827;BME280;35715;51.570;6.036;2024-03-06T01:40:00;101707.66;;;7.06;100.00
49827;BME280;35715;51.570;6.036;2024-03-06T01:42:25;101710.38;;;7.08;100.00
49827;BME280;35715;51.570;6.036;2024-03-06T01:44:50;101702.09;;;7.10;100.00
49827;BME280;35715;51.570;6.036;2024-03-06T01:47:16;101707.22;;;7.10;100.00
49827;BME280;35715;51.570;6.036;2024-03-06T01:49:42;101712.03;;;7.16;100.00
49827;BME280;35715;51.570;6.036;2024-03-06T01:52:09;101718.84;;;7.07;100.00
49827;BME280;35715;51.570;6.036;2024-03-06T01:54:38;101713.25;;;7.02;100.00
49827;BME280;35715;51.570;6.036;2024-03-06T01:57:06;101716.16;;;6.97;100.00
49827;BME280;35715;51.570;6.036;2024-03-06T01:59:33;101708.91;;;6.92;100.00
49827;BME280;35715;51.570;6.036;2024-03-06T02:01:58;101714.19;;;6.94;100.00
49827;BME280;35715;51.570;6.036;2024-03-06T02:04:26;101720.66;;;6.99;100.00
49827;BME280;35715;51.570;6.036;2024-03-06T02:06:56;101720.81;;;7.01;100.00
49827;BME280;35715;51.570;6.036;2024-03-06T02:09:23;101721.44;;;6.98;100.00
49827;BME280;35715;51.570;6.036;2024-03-06T02:11:48;101725.34;;;6.95;100.00
49827;BME280;35715;51.570;6.036;2024-03-06T02:14:15;101726.28;;;6.95;100.00
49827;BME280;35715;51.570;6.036;2024-03-06T02:16:40;101727.19;;;6.96;100.00
49827;BME280;35715;51.570;6.036;2024-03-06T02:19:06;101723.72;;;6.95;100.00
49827;BME280;35715;51.570;6.036;2024-03-06T02:21:32;101724.16;;;6.91;100.00
49827;BME280;35715;51.570;6.036;2024-03-06T02:23:57;101735.47;;;6.84;100.00
49827;BME280;35715;51.570;6.036;2024-03-06T02:26:24;101738.38;;;6.79;100.00
49827;BME280;35715;51.570;6.036;2024-03-06T02:28:51;101727.03;;;6.77;100.00
49827;BME280;35715;51.570;6.036;2024-03-06T02:31:17;101735.38;;;6.74;100.00
49827;BME280;35715;51.570;6.036;2024-03-06T02:33:49;101729.94;;;6.71;100.00
49827;BME280;35715;51.570;6.036;2024-03-06T02:36:15;101729.16;;;6.72;100.00
49827;BME280;35715;51.570;6.036;2024-03-06T02:38:42;101728.28;;;6.71;100.00
49827;BME280;35715;51.570;6.036;2024-03-06T02:41:08;101730.25;;;6.74;100.00
49827;BME280;35715;51.570;6.036;2024-03-06T02:43:34;101727.53;;;6.72;100.00
49827;BME280;35715;51.570;6.036;2024-03-06T02:45:59;101728.28;;;6.71;100.00
49827;BME280;35715;51.570;6.036;2024-03-06T02:48:25;101724.97;;;6.72;100.00
49827;BME280;35715;51.570;6.036;2024-03-06T02:50:50;101727.69;;;6.74;100.00
49827;BME280;35715;51.570;6.036;2024-03-06T02:53:16;101729.31;;;6.73;100.00
49827;BME280;35715;51.570;6.036;2024-03-06T02:55:41;101725.84;;;6.73;100.00
49827;BME280;35715;51.570;6.036;2024-03-06T02:58:06;101728.72;;;6.67;100.00
49827;BME280;35715;51.570;6.036;2024-03-06T03:00:32;101724.22;;;6.65;100.00
49827;BME280;35715;51.570;6.036;2024-03-06T03:02:58;101727.22;;;6.61;100.00
49827;BME280;35715;51.570;6.036;2024-03-06T03:05:24;101726.19;;;6.59;100.00
49827;BME280;35715;51.570;6.036;2024-03-06T03:07:50;101733.69;;;6.57;100.00
49827;BME280;35715;51.570;6.036;2024-03-06T03:10:18;101728.28;;;6.54;100.00
49827;BME280;35715;51.570;6.036;2024-03-06T03:12:43;101739.16;;;6.51;100.00
49827;BME280;35715;51.570;6.036;2024-03-06T03:15:09;101729.03;;;6.44;100.00
49827;BME280;35715;51.570;6.036;2024-03-06T03:17:35;101734.16;;;6.35;100.00
49827;BME280;35715;51.570;6.036;2024-03-06T03:20:01;101736.28;;;6.31;100.00
49827;BME280;35715;51.570;6.036;2024-03-06T03:22:38;101732.94;;;6.23;100.00
49827;BME280;35715;51.570;6.036;2024-03-06T03:25:08;101738.34;;;6.17;100.00
49827;BME280;35715;51.570;6.036;2024-03-06T03:27:36;101738.38;;;6.09;100.00
49827;BME280;35715;51.570;6.036;2024-03-06T03:30:02;101742.84;;;6.02;100.00
49827;BME280;35715;51.570;6.036;2024-03-06T03:32:28;101750.38;;;6.01;100.00
49827;BME280;35715;51.570;6.036;2024-03-06T03:34:53;101752.44;;;5.96;100.00
49827;BME280;35715;51.570;6.036;2024-03-06T03:37:19;101753.06;;;5.94;100.00
49827;BME280;35715;51.570;6.036;2024-03-06T03:39:48;101761.81;;;5.96;100.00
49827;BME280;35715;51.570;6.036;2024-03-06T03:42:14;101754.88;;;5.95;100.00
49827;BME280;35715;51.570;6.036;2024-03-06T03:44:39;101759.59;;;5.99;100.00
49827;BME280;35715;51.570;6.036;2024-03-06T03:47:05;101755.34;;;5.99;100.00
49827;BME280;35715;51.570;6.036;2024-03-06T03:49:30;101759.75;;;6.00;100.00
49827;BME280;35715;51.570;6.036;2024-03-06T03:51:55;101751.47;;;6.03;100.00
49827;BME280;35715;51.570;6.036;2024-03-06T03:54:21;101754.03;;;6.03;100.00
49827;BME280;35715;51.570;6.036;2024-03-06T03:56:46;101757.78;;;6.07;100.00
49827;BME280;35715;51.570;6.036;2024-03-06T03:59:11;101752.09;;;6.09;100.00
49827;BME280;35715;51.570;6.036;2024-03-06T04:01:37;101758.09;;;6.10;100.00
49827;BME280;35715;51.570;6.036;2024-03-06T04:04:02;101761.59;;;6.10;100.00
49827;BME280;35715;51.570;6.036;2024-03-06T04:06:28;101760.06;;;6.12;100.00
49827;BME280;35715;51.570;6.036;2024-03-06T04:08:53;101768.97;;;6.16;100.00
49827;BME280;35715;51.570;6.036;2024-03-06T04:11:18;101764.91;;;6.18;100.00
49827;BME280;35715;51.570;6.036;2024-03-06T04:13:46;101771.38;;;6.23;100.00
49827;BME280;35715;51.570;6.036;2024-03-06T04:16:21;101768.25;;;6.26;100.00
49827;BME280;35715;51.570;6.036;2024-03-06T04:18:47;101767.63;;;6.28;100.00
49827;BME280;35715;51.570;6.036;2024-03-06T04:21:12;101778.34;;;6.24;100.00
49827;BME280;35715;51.570;6.036;2024-03-06T04:23:39;101772.59;;;6.18;100.00
49827;BME280;35715;51.570;6.036;2024-03-06T04:26:05;101774.25;;;6.09;100.00
49827;BME280;35715;51.570;6.036;2024-03-06T04:28:31;101778.44;;;6.08;100.00
49827;BME280;35715;51.570;6.036;2024-03-06T04:30:57;101782.38;;;6.13;100.00
49827;BME280;35715;51.570;6.036;2024-03-06T04:33:22;101783.28;;;6.14;100.00
49827;BME280;35715;51.570;6.036;2024-03-06T04:35:47;101773.03;;;6.14;100.00
49827;BME280;35715;51.570;6.036;2024-03-06T04:38:13;101784.19;;;6.14;100.00
49827;BME280;35715;51.570;6.036;2024-03-06T04:40:39;101782.97;;;6.11;100.00
49827;BME280;35715;51.570;6.036;2024-03-06T04:43:04;101791.25;;;6.08;100.00
49827;BME280;35715;51.570;6.036;2024-03-06T04:45:30;101793.97;;;6.10;100.00
49827;BME280;35715;51.570;6.036;2024-03-06T04:47:55;101797.88;;;6.06;100.00
49827;BME280;35715;51.570;6.036;2024-03-06T04:50:20;101803.44;;;6.02;100.00
49827;BME280;35715;51.570;6.036;2024-03-06T04:52:49;101803.53;;;5.95;100.00
49827;BME280;35715;51.570;6.036;2024-03-06T04:55:14;101814.09;;;5.89;100.00
49827;BME280;35715;51.570;6.036;2024-03-06T04:57:43;101816.19;;;5.93;100.00
49827;BME280;35715;51.570;6.036;2024-03-06T05:00:10;101824.78;;;5.94;100.00
49827;BME280;35715;51.570;6.036;2024-03-06T05:02:35;101823.47;;;5.97;100.00
49827;BME280;35715;51.570;6.036;2024-03-06T05:05:05;101829.81;;;6.01;100.00
49827;BME280;35715;51.570;6.036;2024-03-06T05:07:31;101832.50;;;6.02;100.00
49827;BME280;35715;51.570;6.036;2024-03-06T05:09:57;101831.47;;;6.00;100.00
49827;BME280;35715;51.570;6.036;2024-03-06T05:12:24;101841.22;;;5.96;100.00
49827;BME280;35715;51.570;6.036;2024-03-06T05:14:51;101839.22;;;5.93;100.00
49827;BME280;35715;51.570;6.036;2024-03-06T05:17:17;101845.13;;;5.92;100.00
49827;BME280;35715;51.570;6.036;2024-03-06T05:19:44;101845.72;;;5.90;100.00
49827;BME280;35715;51.570;6.036;2024-03-06T05:22:11;101853.81;;;5.85;100.00
49827;BME280;35715;51.570;6.036;2024-03-06T05:24:37;101846.75;;;5.83;100.00
49827;BME280;35715;51.570;6.036;2024-03-06T05:27:03;101855.91;;;5.81;100.00
49827;BME280;35715;51.570;6.036;2024-03-06T05:29:28;101859.25;;;5.80;100.00
49827;BME280;35715;51.570;6.036;2024-03-06T05:31:53;101856.34;;;5.77;100.00
49827;BME280;35715;51.570;6.036;2024-03-06T05:34:21;101862.16;;;5.67;100.00
49827;BME280;35715;51.570;6.036;2024-03-06T05:36:46;101859.88;;;5.61;100.00
49827;BME280;35715;51.570;6.036;2024-03-06T05:39:12;101862.56;;;5.54;100.00
49827;BME280;35715;51.570;6.036;2024-03-06T05:41:41;101870.34;;;5.47;100.00
49827;BME280;35715;51.570;6.036;2024-03-06T05:44:08;101879.34;;;5.43;100.00
49827;BME280;35715;51.570;6.036;2024-03-06T05:46:33;101872.59;;;5.44;100.00
49827;BME280;35715;51.570;6.036;2024-03-06T05:48:59;101875.00;;;5.42;100.00
49827;BME280;35715;51.570;6.036;2024-03-06T05:51:26;101875.41;;;5.38;100.00
49827;BME280;35715;51.570;6.036;2024-03-06T05:53:51;101875.97;;;5.36;100.00
49827;BME280;35715;51.570;6.036;2024-03-06T05:56:20;101884.44;;;5.35;100.00
49827;BME280;35715;51.570;6.036;2024-03-06T05:58:46;101882.59;;;5.33;100.00
49827;BME280;35715;51.570;6.036;2024-03-06T06:01:15;101877.63;;;5.35;100.00
49827;BME280;35715;51.570;6.036;2024-03-06T06:03:44;101886.53;;;5.39;100.00
49827;BME280;35715;51.570;6.036;2024-03-06T06:06:09;101885.06;;;5.41;100.00
49827;BME280;35715;51.570;6.036;2024-03-06T06:08:34;101889.91;;;5.46;100.00
49827;BME280;35715;51.570;6.036;2024-03-06T06:11:01;101896.19;;;5.41;100.00
49827;BME280;35715;51.570;6.036;2024-03-06T06:13:28;101897.78;;;5.32;100.00
49827;BME280;35715;51.570;6.036;2024-03-06T06:15:53;101896.50;;;5.20;100.00
49827;BME280;35715;51.570;6.036;2024-03-06T06:18:19;101917.53;;;5.17;100.00
49827;BME280;35715;51.570;6.036;2024-03-06T06:20:44;101915.06;;;5.10;100.00
49827;BME280;35715;51.570;6.036;2024-03-06T06:23:10;101919.28;;;4.93;100.00
49827;BME280;35715;51.570;6.036;2024-03-06T06:25:38;101932.25;;;4.79;100.00
49827;BME280;35715;51.570;6.036;2024-03-06T06:28:04;101925.31;;;4.62;100.00
49827;BME280;35715;51.570;6.036;2024-03-06T06:30:32;101933.31;;;4.65;100.00
49827;BME280;35715;51.570;6.036;2024-03-06T06:32:57;101936.59;;;4.64;100.00
49827;BME280;35715;51.570;6.036;2024-03-06T06:35:23;101939.31;;;4.66;100.00
49827;BME280;35715;51.570;6.036;2024-03-06T06:37:50;101949.25;;;4.78;100.00
49827;BME280;35715;51.570;6.036;2024-03-06T06:40:15;101946.69;;;4.78;100.00
49827;BME280;35715;51.570;6.036;2024-03-06T06:42:45;101948.53;;;4.72;100.00
49827;BME280;35715;51.570;6.036;2024-03-06T06:45:17;101947.88;;;4.66;100.00
49827;BME280;35715;51.570;6.036;2024-03-06T06:47:45;101957.16;;;4.73;100.00
49827;BME280;35715;51.570;6.036;2024-03-06T06:50:11;101956.91;;;4.78;100.00
49827;BME280;35715;51.570;6.036;2024-03-06T06:52:40;101961.84;;;4.77;100.00
49827;BME280;35715;51.570;6.036;2024-03-06T06:55:06;101969.44;;;4.84;100.00
49827;BME280;35715;51.570;6.036;2024-03-06T06:57:32;101970.81;;;4.73;100.00
49827;BME280;35715;51.570;6.036;2024-03-06T07:00:01;101975.09;;;4.66;100.00
49827;BME280;35715;51.570;6.036;2024-03-06T07:02:41;101975.66;;;4.63;100.00
49827;BME280;35715;51.570;6.036;2024-03-06T07:05:07;101978.88;;;4.69;100.00
49827;BME280;35715;51.570;6.036;2024-03-06T07:07:34;101991.78;;;4.78;100.00
49827;BME280;35715;51.570;6.036;2024-03-06T07:10:04;101984.53;;;4.90;100.00
49827;BME280;35715;51.570;6.036;2024-03-06T07:12:30;101996.25;;;4.88;100.00
49827;BME280;35715;51.570;6.036;2024-03-06T07:14:55;101992.63;;;5.02;100.00
49827;BME280;35715;51.570;6.036;2024-03-06T07:17:21;101990.34;;;5.12;100.00
49827;BME280;35715;51.570;6.036;2024-03-06T07:19:46;101999.25;;;5.15;100.00
49827;BME280;35715;51.570;6.036;2024-03-06T07:22:11;101998.06;;;5.21;100.00
49827;BME280;35715;51.570;6.036;2024-03-06T07:24:37;102004.63;;;5.26;100.00
49827;BME280;35715;51.570;6.036;2024-03-06T07:27:03;102002.94;;;5.26;100.00
49827;BME280;35715;51.570;6.036;2024-03-06T07:29:28;102008.00;;;5.33;100.00
49827;BME280;35715;51.570;6.036;2024-03-06T07:31:53;102013.94;;;5.41;100.00
49827;BME280;35715;51.570;6.036;2024-03-06T07:34:19;102007.63;;;5.46;100.00
49827;BME280;35715;51.570;6.036;2024-03-06T07:36:46;102017.06;;;5.55;100.00
49827;BME280;35715;51.570;6.036;2024-03-06T07:39:12;102017.06;;;5.55;100.00
49827;BME280;35715;51.570;6.036;2024-03-06T07:41:39;102020.19;;;5.52;100.00
49827;BME280;35715;51.570;6.036;2024-03-06T07:44:04;102014.66;;;5.56;100.00
49827;BME280;35715;51.570;6.036;2024-03-06T07:46:30;102022.00;;;5.53;100.00
49827;BME280;35715;51.570;6.036;2024-03-06T07:48:55;102023.47;;;5.67;100.00
49827;BME280;35715;51.570;6.036;2024-03-06T07:51:20;102031.16;;;5.67;100.00
49827;BME280;35715;51.570;6.036;2024-03-06T07:53:46;102026.28;;;5.77;100.00
49827;BME280;35715;51.570;6.036;2024-03-06T07:56:11;102026.38;;;5.95;100.00
49827;BME280;35715;51.570;6.036;2024-03-06T07:58:40;102036.47;;;6.09;100.00
49827;BME280;35715;51.570;6.036;2024-03-06T08:01:06;102033.81;;;6.16;100.00
49827;BME280;35715;51.570;6.036;2024-03-06T08:03:32;102040.63;;;6.25;100.00
49827;BME280;35715;51.570;6.036;2024-03-06T08:05:59;102036.47;;;6.34;100.00
49827;BME280;35715;51.570;6.036;2024-03-06T08:08:24;102052.06;;;6.44;100.00
49827;BME280;35715;51.570;6.036;2024-03-06T08:10:50;102046.34;;;6.47;100.00
49827;BME280;35715;51.570;6.036;2024-03-06T08:13:15;102048.59;;;6.52;100.00
49827;BME280;35715;51.570;6.036;2024-03-06T08:15:41;102048.34;;;6.58;100.00
49827;BME280;35715;51.570;6.036;2024-03-06T08:18:09;102052.72;;;6.59;100.00
49827;BME280;35715;51.570;6.036;2024-03-06T08:20:34;102053.63;;;6.60;100.00
49827;BME280;35715;51.570;6.036;2024-03-06T08:22:59;102059.22;;;6.64;100.00
49827;BME280;35715;51.570;6.036;2024-03-06T08:25:25;102064.41;;;6.73;100.00
49827;BME280;35715;51.570;6.036;2024-03-06T08:27:50;102060.94;;;6.72;100.00
49827;BME280;35715;51.570;6.036;2024-03-06T08:30:18;102068.34;;;6.78;100.00
49827;BME280;35715;51.570;6.036;2024-03-06T08:32:43;102061.91;;;6.90;100.00
49827;BME280;35715;51.570;6.036;2024-03-06T08:35:11;102063.16;;;7.03;100.00
49827;BME280;35715;51.570;6.036;2024-03-06T08:37:37;102070.88;;;7.20;100.00
49827;BME280;35715;51.570;6.036;2024-03-06T08:40:05;102079.19;;;7.09;100.00
49827;BME280;35715;51.570;6.036;2024-03-06T08:42:32;102073.91;;;7.25;100.00
49827;BME280;35715;51.570;6.036;2024-03-06T08:44:57;102069.13;;;7.45;100.00
49827;BME280;35715;51.570;6.036;2024-03-06T08:47:26;102073.66;;;7.57;100.00
49827;BME280;35715;51.570;6.036;2024-03-06T08:49:51;102088.34;;;7.75;100.00
49827;BME280;35715;51.570;6.036;2024-03-06T08:52:16;102089.25;;;7.93;100.00
49827;BME280;35715;51.570;6.036;2024-03-06T08:54:44;102093.19;;;7.98;99.39
49827;BME280;35715;51.570;6.036;2024-03-06T08:57:10;102081.06;;;8.06;98.81
49827;BME280;35715;51.570;6.036;2024-03-06T08:59:37;102096.34;;;8.05;98.43
49827;BME280;35715;51.570;6.036;2024-03-06T09:02:17;102089.38;;;8.30;98.21
49827;BME280;35715;51.570;6.036;2024-03-06T09:04:44;102096.09;;;8.64;98.02
49827;BME280;35715;51.570;6.036;2024-03-06T09:07:10;102096.78;;;8.90;97.28
49827;BME280;35715;51.570;6.036;2024-03-06T09:09:35;102098.75;;;8.92;96.47
49827;BME280;35715;51.570;6.036;2024-03-06T09:12:03;102100.09;;;8.88;95.82
49827;BME280;35715;51.570;6.036;2024-03-06T09:14:33;102099.91;;;9.04;96.09
49827;BME280;35715;51.570;6.036;2024-03-06T09:16:58;102099.28;;;9.35;95.45
49827;BME280;35715;51.570;6.036;2024-03-06T09:19:24;102105.31;;;9.63;94.29
49827;BME280;35715;51.570;6.036;2024-03-06T09:21:49;102109.75;;;9.74;93.79
49827;BME280;35715;51.570;6.036;2024-03-06T09:24:14;102113.31;;;9.85;93.09
49827;BME280;35715;51.570;6.036;2024-03-06T09:26:40;102107.63;;;10.27;92.25
49827;BME280;35715;51.570;6.036;2024-03-06T09:29:05;102114.19;;;10.43;90.63
49827;BME280;35715;51.570;6.036;2024-03-06T09:31:30;102117.63;;;10.33;90.49
49827;BME280;35715;51.570;6.036;2024-03-06T09:33:56;102121.53;;;10.38;90.41
49827;BME280;35715;51.570;6.036;2024-03-06T09:36:21;102122.38;;;10.58;90.03
49827;BME280;35715;51.570;6.036;2024-03-06T09:38:46;102121.72;;;10.90;89.33
49827;BME280;35715;51.570;6.036;2024-03-06T09:41:13;102125.78;;;11.07;88.58
49827;BME280;35715;51.570;6.036;2024-03-06T09:43:38;102129.75;;;11.03;87.78
49827;BME280;35715;51.570;6.036;2024-03-06T09:46:06;102131.72;;;11.16;86.84
49827;BME280;35715;51.570;6.036;2024-03-06T09:48:33;102123.97;;;11.26;86.54
49827;BME280;35715;51.570;6.036;2024-03-06T09:51:01;102135.63;;;11.72;85.62
49827;BME280;35715;51.570;6.036;2024-03-06T09:53:27;102134.31;;;11.78;84.70
49827;BME280;35715;51.570;6.036;2024-03-06T09:55:54;102136.78;;;12.07;84.52
49827;BME280;35715;51.570;6.036;2024-03-06T09:58:24;102137.47;;;12.37;83.42
49827;BME280;35715;51.570;6.036;2024-03-06T10:00:50;102133.34;;;12.61;82.76
49827;BME280;35715;51.570;6.036;2024-03-06T10:03:16;102140.38;;;13.28;80.36
49827;BME280;35715;51.570;6.036;2024-03-06T10:05:42;102138.63;;;13.61;78.39
49827;BME280;35715;51.570;6.036;2024-03-06T10:08:08;102141.38;;;13.98;78.09
49827;BME280;35715;51.570;6.036;2024-03-06T10:10:35;102143.06;;;14.57;75.84
49827;BME280;35715;51.570;6.036;2024-03-06T10:13:02;102153.28;;;15.28;72.53
49827;BME280;35715;51.570;6.036;2024-03-06T10:15:29;102149.81;;;15.91;69.97
49827;BME280;35715;51.570;6.036;2024-03-06T10:18:11;102146.25;;;16.29;68.88
49827;BME280;35715;51.570;6.036;2024-03-06T10:20:37;102146.88;;;17.22;65.03
49827;BME280;35715;51.570;6.036;2024-03-06T10:23:03;102144.38;;;17.97;62.82
49827;BME280;35715;51.570;6.036;2024-03-06T10:25:29;102146.47;;;18.80;57.54
49827;BME280;35715;51.570;6.036;2024-03-06T10:30:31;102140.56;;;20.35;54.46
49827;BME280;35715;51.570;6.036;2024-03-06T10:32:56;102144.69;;;20.86;51.20
49827;BME280;35715;51.570;6.036;2024-03-06T10:35:22;102148.31;;;21.27;49.87
49827;BME280;35715;51.570;6.036;2024-03-06T10:37:48;102148.03;;;21.60;48.26
49827;BME280;35715;51.570;6.036;2024-03-06T10:40:15;102157.44;;;21.95;47.03
49827;BME280;35715;51.570;6.036;2024-03-06T10:42:42;102145.19;;;22.38;45.99
49827;BME280;35715;51.570;6.036;2024-03-06T10:45:13;102151.41;;;22.63;45.41
49827;BME280;35715;51.570;6.036;2024-03-06T10:47:40;102153.66;;;22.99;44.71
49827;BME280;35715;51.570;6.036;2024-03-06T10:50:06;102151.03;;;23.21;43.19
49827;BME280;35715;51.570;6.036;2024-03-06T10:52:36;102147.28;;;23.41;42.54
49827;BME280;35715;51.570;6.036;2024-03-06T10:55:04;102145.72;;;23.70;41.58
49827;BME280;35715;51.570;6.036;2024-03-06T10:57:30;102148.47;;;23.99;40.76
49827;BME280;35715;51.570;6.036;2024-03-06T10:59:56;102135.28;;;24.26;39.22
49827;BME280;35715;51.570;6.036;2024-03-06T11:02:27;102142.16;;;24.50;39.34
49827;BME280;35715;51.570;6.036;2024-03-06T11:04:59;102140.50;;;24.80;38.21
49827;BME280;35715;51.570;6.036;2024-03-06T11:07:27;102135.72;;;24.97;38.13
49827;BME280;35715;51.570;6.036;2024-03-06T11:10:02;102146.06;;;24.90;37.02
49827;BME280;35715;51.570;6.036;2024-03-06T11:12:38;102150.22;;;25.12;36.75
49827;BME280;35715;51.570;6.036;2024-03-06T11:15:22;102147.47;;;25.07;38.15
49827;BME280;35715;51.570;6.036;2024-03-06T11:17:50;102148.75;;;24.91;38.03
49827;BME280;35715;51.570;6.036;2024-03-06T11:20:17;102147.31;;;25.03;37.56
49827;BME280;35715;51.570;6.036;2024-03-06T11:28:11;102155.97;;;25.29;36.17
49827;BME280;35715;51.570;6.036;2024-03-06T11:30:48;102159.47;;;25.60;36.72
49827;BME280;35715;51.570;6.036;2024-03-06T11:33:16;102160.56;;;25.66;35.38
49827;BME280;35715;51.570;6.036;2024-03-06T11:35:42;102158.63;;;25.61;35.83
49827;BME280;35715;51.570;6.036;2024-03-06T11:38:17;102166.81;;;25.70;34.92
49827;BME280;35715;51.570;6.036;2024-03-06T11:40:48;102165.47;;;25.86;34.10
49827;BME280;35715;51.570;6.036;2024-03-06T11:43:24;102164.34;;;26.11;33.89
49827;BME280;35715;51.570;6.036;2024-03-06T11:45:49;102162.94;;;26.26;34.52
49827;BME280;35715;51.570;6.036;2024-03-06T11:48:15;102157.38;;;26.13;34.41
49827;BME280;35715;51.570;6.036;2024-03-06T11:50:45;102169.94;;;26.24;33.56
49827;BME280;35715;51.570;6.036;2024-03-06T11:53:12;102162.66;;;26.13;32.94
49827;BME280;35715;51.570;6.036;2024-03-06T11:55:38;102158.44;;;26.21;32.56
49827;BME280;35715;51.570;6.036;2024-03-06T11:58:04;102160.53;;;25.98;32.27
49827;BME280;35715;51.570;6.036;2024-03-06T12:00:30;102149.81;;;26.30;33.42
49827;BME280;35715;51.570;6.036;2024-03-06T12:02:57;102150.13;;;26.44;32.29
49827;BME280;35715;51.570;6.036;2024-03-06T12:05:23;102160.34;;;26.27;32.85
49827;BME280;35715;51.570;6.036;2024-03-06T12:07:52;102153.72;;;26.46;32.20
49827;BME280;35715;51.570;6.036;2024-03-06T12:10:17;102162.16;;;24.14;34.28
49827;BME280;35715;51.570;6.036;2024-03-06T12:12:43;102159.84;;;22.12;37.70
49827;BME280;35715;51.570;6.036;2024-03-06T12:15:10;102162.47;;;20.91;39.19
49827;BME280;35715;51.570;6.036;2024-03-06T12:17:46;102172.25;;;19.71;40.74
49827;BME280;35715;51.570;6.036;2024-03-06T12:20:15;102155.53;;;19.18;42.53
49827;BME280;35715;51.570;6.036;2024-03-06T12:22:50;102164.72;;;18.32;43.50
49827;BME280;35715;51.570;6.036;2024-03-06T12:27:45;102168.88;;;17.84;46.01
49827;BME280;35715;51.570;6.036;2024-03-06T12:30:10;102168.22;;;17.58;46.15
49827;BME280;35715;51.570;6.036;2024-03-06T12:32:41;102171.03;;;17.33;46.37
49827;BME280;35715;51.570;6.036;2024-03-06T12:35:07;102157.06;;;17.04;47.13
49827;BME280;35715;51.570;6.036;2024-03-06T12:37:32;102162.13;;;16.74;47.93
49827;BME280;35715;51.570;6.036;2024-03-06T12:39:58;102165.16;;;16.54;48.50
49827;BME280;35715;51.570;6.036;2024-03-06T12:42:23;102162.34;;;16.24;49.34
49827;BME280;35715;51.570;6.036;2024-03-06T12:44:51;102167.72;;;16.00;48.91
49827;BME280;35715;51.570;6.036;2024-03-06T12:47:17;102169.09;;;15.82;50.64
49827;BME280;35715;51.570;6.036;2024-03-06T12:49:42;102167.19;;;15.79;51.45
49827;BME280;35715;51.570;6.036;2024-03-06T12:52:08;102171.94;;;15.73;51.86
49827;BME280;35715;51.570;6.036;2024-03-06T12:54:34;102170.75;;;15.68;53.02
49827;BME280;35715;51.570;6.036;2024-03-06T12:56:59;102169.81;;;15.54;54.83